createdAt,value
2018-05-26T00:01:35.057Z,17.30
2018-05-26T00:04:03.718Z,17.30
2018-05-26T00:06:32.389Z,17.30
2018-05-26T00:09:01.080Z,17.20
2018-05-26T00:11:30.997Z,17.10
2018-05-26T00:13:59.644Z,17.10
2018-05-26T00:16:28.309Z,17.00
2018-05-26T00:18:56.949Z,17.00
2018-05-26T00:21:26.448Z,17.00
2018-05-26T00:23:55.102Z,17.00
2018-05-26T00:26:23.767Z,17.00
2018-05-26T00:28:52.449Z,17.00
2018-05-26T00:31:21.080Z,16.90
2018-05-26T00:33:49.760Z,16.90
2018-05-26T00:36:18.396Z,16.90
2018-05-26T00:38:47.065Z,16.90
2018-05-26T00:41:15.720Z,16.80
2018-05-26T00:43:44.388Z,16.80
2018-05-26T00:46:13.059Z,16.80
2018-05-26T00:48:41.720Z,16.70
2018-05-26T00:51:11.130Z,16.60
2018-05-26T00:53:39.816Z,16.60
2018-05-26T00:56:08.485Z,16.50
2018-05-26T00:58:37.211Z,16.60
2018-05-26T01:01:06.031Z,16.50
2018-05-26T01:03:34.692Z,16.50
2018-05-26T01:06:03.388Z,16.60
2018-05-26T01:08:32.045Z,16.50
2018-05-26T01:11:00.690Z,16.50
2018-05-26T01:13:30.148Z,16.50
2018-05-26T01:15:58.780Z,16.50
2018-05-26T01:18:28.241Z,16.50
2018-05-26T01:20:56.884Z,16.40
2018-05-26T01:23:25.550Z,16.50
2018-05-26T01:25:54.995Z,16.50
2018-05-26T01:28:23.640Z,16.50
2018-05-26T01:30:53.079Z,16.50
2018-05-26T01:33:21.709Z,16.50
2018-05-26T01:35:50.380Z,16.50
2018-05-26T01:38:19.049Z,16.40
2018-05-26T01:40:47.667Z,16.40
2018-05-26T01:43:16.335Z,16.50
2018-05-26T01:45:45.012Z,16.50
2018-05-26T01:48:13.712Z,16.50
2018-05-26T01:50:42.362Z,16.40
2018-05-26T01:53:11.046Z,16.50
2018-05-26T01:55:39.712Z,16.40
2018-05-26T01:58:08.377Z,16.40
2018-05-26T02:00:37.819Z,16.40
2018-05-26T02:03:06.510Z,16.30
2018-05-26T02:05:35.174Z,16.30
2018-05-26T02:08:03.880Z,16.30
2018-05-26T02:10:32.580Z,16.30
2018-05-26T02:13:01.272Z,16.30
2018-05-26T02:15:29.964Z,16.40
2018-05-26T02:17:58.604Z,16.30
2018-05-26T02:20:27.259Z,16.30
2018-05-26T02:22:55.920Z,16.30
2018-05-26T02:25:24.633Z,16.20
2018-05-26T02:27:54.081Z,16.20
2018-05-26T02:30:22.731Z,16.20
2018-05-26T02:32:52.183Z,16.10
2018-05-26T02:35:20.862Z,16.10
2018-05-26T02:37:49.527Z,16.10
2018-05-26T02:40:21.604Z,16.20
2018-05-26T02:42:50.293Z,16.10
2018-05-26T02:45:18.971Z,16.10
2018-05-26T02:47:47.628Z,16.10
2018-05-26T02:50:17.084Z,16.10
2018-05-26T02:52:45.745Z,16.10
2018-05-26T02:55:14.451Z,16.10
2018-05-26T02:57:43.157Z,16.10
2018-05-26T03:00:11.818Z,16.00
2018-05-26T03:02:40.480Z,16.00
2018-05-26T03:05:14.480Z,16.10
2018-05-26T03:07:49.483Z,16.00
2018-05-26T03:10:23.542Z,16.00
2018-05-26T03:12:57.763Z,16.10
2018-05-26T03:15:25.697Z,16.10
2018-05-26T03:18:00.651Z,16.00
2018-05-26T03:20:29.333Z,16.00
2018-05-26T03:22:57.990Z,16.00
2018-05-26T03:25:26.675Z,16.00
2018-05-26T03:27:55.288Z,15.90
2018-05-26T03:30:23.971Z,16.00
2018-05-26T03:32:52.630Z,16.00
2018-05-26T03:35:21.269Z,16.00
2018-05-26T03:37:49.971Z,16.00
2018-05-26T03:40:18.853Z,16.00
2018-05-26T03:42:47.532Z,16.00
2018-05-26T03:45:16.193Z,16.00
2018-05-26T03:47:44.790Z,16.00
2018-05-26T03:50:13.402Z,16.00
2018-05-26T03:52:41.971Z,16.00
2018-05-26T03:58:25.170Z,16.00
2018-05-26T04:00:55.047Z,15.90
2018-05-26T04:03:23.633Z,16.00
2018-05-26T04:05:52.297Z,16.00
2018-05-26T04:08:21.847Z,16.00
2018-05-26T04:10:50.134Z,16.00
2018-05-26T04:13:19.538Z,15.90
2018-05-26T04:15:48.891Z,15.90
2018-05-26T04:18:17.512Z,15.90
2018-05-26T04:20:46.144Z,16.00
2018-05-26T04:23:14.728Z,15.90
2018-05-26T04:25:43.342Z,16.00
2018-05-26T04:28:11.951Z,16.00
2018-05-26T04:30:41.340Z,16.00
2018-05-26T04:33:09.958Z,16.00
2018-05-26T04:35:38.548Z,16.00
2018-05-26T04:38:07.171Z,16.00
2018-05-26T04:40:35.756Z,16.00
2018-05-26T04:43:05.147Z,16.00
2018-05-26T04:45:33.768Z,16.00
2018-05-26T04:48:02.362Z,16.00
2018-05-26T04:50:31.756Z,16.10
2018-05-26T04:53:00.149Z,16.00
2018-05-26T04:55:29.542Z,16.10
2018-05-26T04:57:58.156Z,16.10
2018-05-26T05:00:26.749Z,16.10
2018-05-26T05:02:55.363Z,16.10
2018-05-26T05:05:23.975Z,16.20
2018-05-26T05:07:52.614Z,16.20
2018-05-26T05:10:21.234Z,16.20
2018-05-26T05:12:49.816Z,16.20
2018-05-26T05:15:18.639Z,16.20
2018-05-26T05:17:47.232Z,16.30
2018-05-26T05:20:15.845Z,16.30
2018-05-26T05:22:44.462Z,16.40
2018-05-26T05:25:13.043Z,16.40
2018-05-26T05:27:41.668Z,16.50
2018-05-26T05:30:10.258Z,16.50
2018-05-26T05:32:38.874Z,16.60
2018-05-26T05:35:07.484Z,16.60
2018-05-26T05:37:36.083Z,16.70
2018-05-26T05:40:04.936Z,16.70
2018-05-26T05:42:33.524Z,16.70
2018-05-26T05:45:02.143Z,16.80
2018-05-26T05:47:31.546Z,16.90
2018-05-26T05:50:00.908Z,17.00
2018-05-26T05:52:29.516Z,16.90
2018-05-26T05:54:58.112Z,17.00
2018-05-26T05:57:27.510Z,17.20
2018-05-26T05:59:56.140Z,17.20
2018-05-26T06:02:26.802Z,17.20
2018-05-26T06:04:55.417Z,17.30
2018-05-26T06:07:24.777Z,17.50
2018-05-26T06:09:53.433Z,17.50
2018-05-26T06:12:22.195Z,17.60
2018-05-26T06:14:51.645Z,17.80
2018-05-26T06:17:21.180Z,17.90
2018-05-26T06:19:49.773Z,17.90
2018-05-26T06:22:18.390Z,18.10
2018-05-26T06:24:46.983Z,18.20
2018-05-26T06:27:15.591Z,18.40
2018-05-26T06:29:44.221Z,18.60
2018-05-26T06:32:13.600Z,18.90
2018-05-26T06:34:42.216Z,18.90
2018-05-26T06:37:11.572Z,19.20
2018-05-26T06:39:40.182Z,19.20
2018-05-26T06:42:08.807Z,19.40
2018-05-26T06:44:37.397Z,19.60
2018-05-26T06:47:06.011Z,19.80
2018-05-26T06:49:34.611Z,20.00
2018-05-26T06:52:03.236Z,20.20
2018-05-26T06:54:31.854Z,20.40
2018-05-26T06:57:00.435Z,20.60
2018-05-26T06:59:29.054Z,20.80
2018-05-26T07:01:57.639Z,21.10
2018-05-26T07:04:27.031Z,21.60
2018-05-26T07:06:55.788Z,21.60
2018-05-26T07:09:24.382Z,21.70
2018-05-26T07:11:53.000Z,22.00
2018-05-26T07:14:22.358Z,22.30
2018-05-26T07:16:50.970Z,22.30
2018-05-26T07:19:19.583Z,22.50
2018-05-26T07:21:48.941Z,22.90
2018-05-26T07:24:17.560Z,22.90
2018-05-26T07:26:46.912Z,23.30
2018-05-26T07:29:15.795Z,23.20
2018-05-26T07:31:44.431Z,23.40
2018-05-26T07:34:13.019Z,23.70
2018-05-26T07:36:45.879Z,24.30
2018-05-26T07:39:14.474Z,24.20
2018-05-26T07:41:43.092Z,24.50
2018-05-26T07:44:11.719Z,24.60
2018-05-26T07:46:40.305Z,24.70
2018-05-26T07:49:09.707Z,25.00
2018-05-26T07:51:38.313Z,25.00
2018-05-26T07:54:06.937Z,25.30
2018-05-26T07:56:35.558Z,25.60
2018-05-26T07:59:04.167Z,25.80
2018-05-26T08:01:32.799Z,25.90
2018-05-26T08:04:01.390Z,26.30
2018-05-26T08:06:30.012Z,26.60
2018-05-26T08:08:58.630Z,26.70
2018-05-26T08:11:28.019Z,27.20
2018-05-26T08:13:57.407Z,27.40
2018-05-26T08:16:26.008Z,27.30
2018-05-26T08:18:55.396Z,27.50
2018-05-26T08:21:24.037Z,27.40
2018-05-26T08:23:53.243Z,27.50
2018-05-26T08:26:27.478Z,27.70
2018-05-26T08:28:56.090Z,28.10
2018-05-26T08:31:24.711Z,28.60
2018-05-26T08:33:53.385Z,28.80
2018-05-26T08:36:22.121Z,28.90
2018-05-26T08:38:50.779Z,29.00
2018-05-26T08:41:19.360Z,28.80
2018-05-26T08:43:47.967Z,28.90
2018-05-26T08:46:16.581Z,29.00
2018-05-26T08:48:45.158Z,29.00
2018-05-26T08:51:13.776Z,29.10
2018-05-26T08:53:42.367Z,29.30
2018-05-26T08:56:10.984Z,29.40
2018-05-26T08:58:39.605Z,29.10
2018-05-26T09:01:08.180Z,29.50
2018-05-26T09:03:36.801Z,29.80
2018-05-26T09:06:05.388Z,29.70
2018-05-26T09:08:33.999Z,29.70
2018-05-26T09:11:02.610Z,29.80
2018-05-26T09:13:31.299Z,30.10
2018-05-26T09:15:59.903Z,29.90
2018-05-26T09:18:28.494Z,30.10
2018-05-26T09:20:57.922Z,30.50
2018-05-26T09:23:26.547Z,30.40
2018-05-26T09:25:55.128Z,30.80
2018-05-26T09:28:23.739Z,30.70
2018-05-26T09:30:53.111Z,31.30
2018-05-26T09:33:21.733Z,31.30
2018-05-26T09:35:50.335Z,31.50
2018-05-26T09:38:19.014Z,31.10
2018-05-26T09:40:49.815Z,31.10
2018-05-26T09:43:18.411Z,31.30
2018-05-26T09:45:47.811Z,31.50
2018-05-26T09:48:17.182Z,31.30
2018-05-26T09:50:45.873Z,31.20
2018-05-26T09:53:14.503Z,31.50
2018-05-26T09:55:43.099Z,32.00
2018-05-26T09:58:11.752Z,31.60
2018-05-26T10:00:40.339Z,31.50
2018-05-26T10:03:09.728Z,32.10
2018-05-26T10:05:38.346Z,32.10
2018-05-26T10:08:06.940Z,32.40
2018-05-26T10:10:35.563Z,32.70
2018-05-26T10:13:04.170Z,32.50
2018-05-26T10:15:33.551Z,33.60
2018-05-26T10:18:02.149Z,33.60
2018-05-26T10:20:30.784Z,33.40
2018-05-26T10:22:59.407Z,32.90
2018-05-26T10:25:28.008Z,33.00
2018-05-26T10:27:56.647Z,33.60
2018-05-26T10:30:25.231Z,34.00
2018-05-26T10:32:53.846Z,34.40
2018-05-26T10:35:22.464Z,34.80
2018-05-26T10:37:51.055Z,34.20
2018-05-26T10:40:19.715Z,34.40
2018-05-26T10:42:48.299Z,34.40
2018-05-26T10:45:16.328Z,34.70
2018-05-26T10:47:44.967Z,34.70
2018-05-26T10:50:14.314Z,34.80
2018-05-26T10:52:42.948Z,34.70
2018-05-26T10:55:12.295Z,34.40
2018-05-26T10:57:40.911Z,34.40
2018-05-26T11:00:09.527Z,34.60
2018-05-26T11:02:38.114Z,34.50
2018-05-26T11:05:06.734Z,34.60
2018-05-26T11:07:35.318Z,34.50
2018-05-26T11:10:03.638Z,34.20
2018-05-26T11:12:35.735Z,34.60
2018-05-26T11:15:04.367Z,34.70
2018-05-26T11:17:33.026Z,35.00
2018-05-26T11:20:01.603Z,34.80
2018-05-26T11:22:30.264Z,35.00
2018-05-26T11:24:58.872Z,35.10
2018-05-26T11:27:27.483Z,35.30
2018-05-26T11:29:56.124Z,35.60
2018-05-26T11:32:24.712Z,35.40
2018-05-26T11:34:53.333Z,34.90
2018-05-26T11:37:21.962Z,35.30
2018-05-26T11:39:50.739Z,35.70
2018-05-26T11:42:19.356Z,35.90
2018-05-26T11:44:47.938Z,35.70
2018-05-26T11:47:16.551Z,35.60
2018-05-26T11:49:45.130Z,34.90
2018-05-26T11:52:13.747Z,34.70
2018-05-26T11:54:42.371Z,34.20
2018-05-26T11:57:11.025Z,34.80
2018-05-26T11:59:40.413Z,35.40
2018-05-26T12:02:09.024Z,35.50
2018-05-26T12:04:38.607Z,35.60
2018-05-26T12:07:07.335Z,35.60
2018-05-26T12:09:35.925Z,35.30
2018-05-26T12:12:04.584Z,35.20
2018-05-26T12:14:33.343Z,34.70
2018-05-26T12:17:01.971Z,35.10
2018-05-26T12:19:30.588Z,35.80
2018-05-26T12:21:59.183Z,36.10
2018-05-26T12:24:27.805Z,35.90
2018-05-26T12:26:56.433Z,35.90
2018-05-26T12:29:25.231Z,34.90
2018-05-26T12:31:53.843Z,35.10
2018-05-26T12:34:22.426Z,35.00
2018-05-26T12:36:51.039Z,35.60
2018-05-26T12:39:19.626Z,35.70
2018-05-26T12:41:51.850Z,35.80
2018-05-26T12:44:20.656Z,35.80
2018-05-26T12:46:50.674Z,36.10
2018-05-26T12:49:20.088Z,35.70
2018-05-26T12:51:48.684Z,35.70
2018-05-26T12:54:18.075Z,36.10
2018-05-26T12:56:46.664Z,36.10
2018-05-26T12:59:15.283Z,36.80
2018-05-26T13:01:43.920Z,37.10
2018-05-26T13:04:12.491Z,36.60
2018-05-26T13:06:41.111Z,36.80
2018-05-26T13:09:09.763Z,36.40
2018-05-26T13:11:39.689Z,36.70
2018-05-26T13:14:09.099Z,37.10
2018-05-26T13:16:38.519Z,37.00
2018-05-26T13:19:07.156Z,37.00
2018-05-26T13:21:35.759Z,36.70
2018-05-26T13:24:04.384Z,36.70
2018-05-26T13:26:32.990Z,36.80
2018-05-26T13:29:02.431Z,36.40
2018-05-26T13:31:31.060Z,36.40
2018-05-26T13:33:59.638Z,36.40
2018-05-26T13:36:28.246Z,35.90
2018-05-26T13:38:56.830Z,36.10
2018-05-26T13:41:26.250Z,34.90
2018-05-26T13:43:54.821Z,34.90
2018-05-26T13:46:24.194Z,35.70
2018-05-26T13:48:52.852Z,35.60
2018-05-26T13:51:21.471Z,35.60
2018-05-26T13:53:50.278Z,35.50
2018-05-26T13:56:19.071Z,35.50
2018-05-26T13:58:47.868Z,35.90
2018-05-26T14:01:16.505Z,35.70
2018-05-26T14:03:45.854Z,35.20
2018-05-26T14:06:14.483Z,35.10
2018-05-26T14:08:43.130Z,34.90
2018-05-26T14:11:11.841Z,34.90
2018-05-26T14:13:41.242Z,34.40
2018-05-26T14:16:09.819Z,34.40
2018-05-26T14:18:38.477Z,34.80
2018-05-26T14:21:07.078Z,34.50
2018-05-26T14:23:35.699Z,34.40
2018-05-26T14:26:05.083Z,34.20
2018-05-26T14:28:33.790Z,34.20
2018-05-26T14:31:03.167Z,34.40
2018-05-26T14:33:31.760Z,34.40
2018-05-26T14:36:00.381Z,34.30
2018-05-26T14:38:28.998Z,34.40
2018-05-26T14:40:57.592Z,34.40
2018-05-26T14:43:26.206Z,34.40
2018-05-26T14:45:54.819Z,34.40
2018-05-26T14:48:23.426Z,34.60
2018-05-26T14:50:52.027Z,34.60
2018-05-26T14:53:20.612Z,34.20
2018-05-26T14:55:49.234Z,33.80
2018-05-26T14:58:17.855Z,33.90
2018-05-26T15:00:46.611Z,33.80
2018-05-26T15:03:16.023Z,33.50
2018-05-26T15:05:45.395Z,33.00
2018-05-26T15:08:14.049Z,33.00
2018-05-26T15:10:43.387Z,32.40
2018-05-26T15:13:12.072Z,32.40
2018-05-26T15:15:40.782Z,32.50
2018-05-26T15:18:10.163Z,32.80
2018-05-26T15:20:38.788Z,32.80
2018-05-26T15:23:07.365Z,32.80
2018-05-26T15:25:35.966Z,32.90
2018-05-26T15:28:04.558Z,32.80
2018-05-26T15:30:33.175Z,33.10
2018-05-26T15:33:01.843Z,33.20
2018-05-26T15:35:30.641Z,33.10
2018-05-26T15:37:59.324Z,33.00
2018-05-26T15:40:27.964Z,32.50
2018-05-26T15:42:56.623Z,32.40
2018-05-26T15:45:26.028Z,32.30
2018-05-26T15:47:55.439Z,32.20
2018-05-26T15:50:24.859Z,32.20
2018-05-26T15:52:53.491Z,32.20
2018-05-26T15:55:22.181Z,32.30
2018-05-26T15:57:50.798Z,32.20
2018-05-26T16:00:20.296Z,32.40
2018-05-26T16:02:49.772Z,32.40
2018-05-26T16:05:18.440Z,32.40
2018-05-26T16:07:47.148Z,32.20
2018-05-26T16:10:15.851Z,32.20
2018-05-26T16:12:45.332Z,32.30
2018-05-26T16:15:14.024Z,32.30
2018-05-26T16:17:42.734Z,32.20
2018-05-26T16:20:12.173Z,32.40
2018-05-26T16:22:40.870Z,32.40
2018-05-26T16:25:09.536Z,32.40
2018-05-26T16:27:38.215Z,32.70
2018-05-26T16:30:06.868Z,32.70
2018-05-26T16:32:35.580Z,32.70
2018-05-26T16:35:04.239Z,32.60
2018-05-26T16:37:32.890Z,32.70
2018-05-26T16:40:01.580Z,32.90
2018-05-26T16:42:35.677Z,33.50
2018-05-26T16:45:04.390Z,33.80
2018-05-26T16:47:33.035Z,33.70
2018-05-26T16:50:01.731Z,33.70
2018-05-26T16:52:30.390Z,33.50
2018-05-26T16:54:59.058Z,33.70
2018-05-26T16:57:28.547Z,33.80
2018-05-26T16:59:57.208Z,33.70
2018-05-26T17:02:25.889Z,33.90
2018-05-26T17:04:54.541Z,33.90
2018-05-26T17:07:23.227Z,34.00
2018-05-26T17:09:51.901Z,34.00
2018-05-26T17:12:21.347Z,34.20
2018-05-26T17:14:50.051Z,34.20
2018-05-26T17:17:18.729Z,34.70
2018-05-26T17:19:47.388Z,34.70
2018-05-26T17:22:16.044Z,34.90
2018-05-26T17:24:45.491Z,34.50
2018-05-26T17:27:13.875Z,34.50
2018-05-26T17:29:42.544Z,33.90
2018-05-26T17:32:11.191Z,33.70
2018-05-26T17:34:39.879Z,33.20
2018-05-26T17:37:09.272Z,32.20
2018-05-26T17:39:37.919Z,32.20
2018-05-26T17:42:06.568Z,31.90
2018-05-26T17:44:35.991Z,31.30
2018-05-26T17:47:04.705Z,31.30
2018-05-26T17:49:33.367Z,31.10
2018-05-26T17:52:02.030Z,30.80
2018-05-26T17:54:30.695Z,30.60
2018-05-26T17:56:59.428Z,30.20
2018-05-26T17:59:28.167Z,30.20
2018-05-26T18:01:57.304Z,29.40
2018-05-26T18:04:25.992Z,29.30
2018-05-26T18:06:54.361Z,29.10
2018-05-26T18:09:23.020Z,28.80
2018-05-26T18:11:52.483Z,28.30
2018-05-26T18:14:21.150Z,28.30
2018-05-26T18:16:49.867Z,28.30
2018-05-26T18:19:18.512Z,28.10
2018-05-26T18:21:47.183Z,28.00
2018-05-26T18:24:18.208Z,28.00
2018-05-26T18:26:47.679Z,27.60
2018-05-26T18:29:16.375Z,27.60
2018-05-26T18:31:45.003Z,27.50
2018-05-26T18:34:13.692Z,27.50
2018-05-26T18:36:42.371Z,27.40
2018-05-26T18:39:11.072Z,27.20
2018-05-26T18:41:39.739Z,27.00
2018-05-26T18:44:09.157Z,26.60
2018-05-26T18:46:37.880Z,26.60
2018-05-26T18:49:06.548Z,26.40
2018-05-26T18:51:38.812Z,26.30
2018-05-26T18:54:07.532Z,26.20
2018-05-26T18:56:36.184Z,25.90
2018-05-26T18:59:04.917Z,25.90
2018-05-26T19:01:37.351Z,25.70
2018-05-26T19:04:05.735Z,25.60
2018-05-26T19:06:34.492Z,25.50
2018-05-26T19:09:03.326Z,25.40
2018-05-26T19:11:32.020Z,25.00
2018-05-26T19:14:00.647Z,24.90
2018-05-26T19:16:29.346Z,24.90
2018-05-26T19:18:58.061Z,24.80
2018-05-26T19:21:26.828Z,24.70
2018-05-26T19:23:55.519Z,24.40
2018-05-26T19:26:24.201Z,24.20
2018-05-26T19:28:52.913Z,24.10
2018-05-26T19:31:21.636Z,24.10
2018-05-26T19:33:52.732Z,24.00
2018-05-26T19:36:21.449Z,24.00
2018-05-26T19:38:50.939Z,24.00
2018-05-26T19:41:19.923Z,24.00
2018-05-26T19:43:48.594Z,23.90
2018-05-26T19:46:17.800Z,23.60
2018-05-26T19:48:47.211Z,23.40
2018-05-26T19:51:15.901Z,23.30
2018-05-26T19:53:44.585Z,23.20
2018-05-26T19:56:13.305Z,23.10
2018-05-26T19:58:43.628Z,22.80
2018-05-26T20:01:12.518Z,22.60
2018-05-26T20:03:41.419Z,22.60
2018-05-26T20:06:10.128Z,22.40
2018-05-26T20:08:38.863Z,22.60
2018-05-26T20:11:07.541Z,22.50
2018-05-26T20:13:43.195Z,22.50
2018-05-26T20:16:11.874Z,22.50
2018-05-26T20:18:40.589Z,22.30
2018-05-26T20:21:09.988Z,22.10
2018-05-26T20:23:39.456Z,22.10
2018-05-26T20:26:08.140Z,22.10
2018-05-26T20:28:48.355Z,22.10
2018-05-26T20:31:17.130Z,21.50
2018-05-26T20:33:46.009Z,21.30
2018-05-26T20:36:14.770Z,21.40
2018-05-26T20:38:43.507Z,21.50
2018-05-26T20:41:12.932Z,21.40
2018-05-26T20:43:41.640Z,21.40
2018-05-26T20:46:10.412Z,21.40
2018-05-26T20:48:39.118Z,21.30
2018-05-26T20:51:07.772Z,21.10
2018-05-26T20:53:36.479Z,20.80
2018-05-26T20:56:05.148Z,20.70
2018-05-26T20:58:33.848Z,20.70
2018-05-26T21:01:02.530Z,20.70
2018-05-26T21:03:31.268Z,20.80
2018-05-26T21:06:00.770Z,20.50
2018-05-26T21:08:29.143Z,20.40
2018-05-26T21:10:57.836Z,20.30
2018-05-26T21:13:26.482Z,20.30
2018-05-26T21:15:55.185Z,20.20
2018-05-26T21:18:23.900Z,20.10
2018-05-26T21:20:53.325Z,20.00
2018-05-26T21:23:22.017Z,20.00
2018-05-26T21:25:50.706Z,20.00
2018-05-26T21:28:19.409Z,19.90
2018-05-26T21:30:48.072Z,19.80
2018-05-26T21:33:16.740Z,19.80
2018-05-26T21:35:46.181Z,19.80
2018-05-26T21:38:14.818Z,19.80
2018-05-26T21:40:44.288Z,19.80
2018-05-26T21:43:13.740Z,19.80
2018-05-26T21:45:42.372Z,19.80
2018-05-26T21:48:11.049Z,19.70
2018-05-26T21:50:39.733Z,19.70
2018-05-26T21:53:08.412Z,19.60
2018-05-26T21:55:37.214Z,19.60
2018-05-26T21:58:05.890Z,19.60
2018-05-26T22:00:34.592Z,19.60
2018-05-26T22:03:03.258Z,19.60
2018-05-26T22:05:31.949Z,19.40
2018-05-26T22:08:00.723Z,19.30
2018-05-26T22:10:29.378Z,19.30
2018-05-26T22:12:58.828Z,19.00
2018-05-26T22:15:27.463Z,18.90
2018-05-26T22:17:56.160Z,19.00
2018-05-26T22:20:25.589Z,18.90
2018-05-26T22:22:54.257Z,18.90
2018-05-26T22:25:24.056Z,18.80
2018-05-26T22:27:52.728Z,18.70
2018-05-26T22:30:21.450Z,18.70
2018-05-26T22:32:50.151Z,18.70
2018-05-26T22:35:18.799Z,18.60
2018-05-26T22:37:48.247Z,18.50
2018-05-26T22:40:16.875Z,18.50
2018-05-26T22:42:45.544Z,18.50
2018-05-26T22:45:14.244Z,18.50
2018-05-26T22:47:42.889Z,18.60
2018-05-26T22:50:11.539Z,18.50
2018-05-26T22:52:40.952Z,18.20
2018-05-26T22:55:09.631Z,18.20
2018-05-26T22:57:39.044Z,18.30
2018-05-26T23:00:07.104Z,18.20
2018-05-26T23:02:35.794Z,18.20
2018-05-26T23:05:04.475Z,17.90
2018-05-26T23:07:33.919Z,17.70
2018-05-26T23:10:02.614Z,17.70
2018-05-26T23:12:31.244Z,17.70
2018-05-26T23:15:00.679Z,17.50
2018-05-26T23:17:29.302Z,17.50
2018-05-26T23:19:57.939Z,17.60
2018-05-26T23:22:26.641Z,17.60
2018-05-26T23:24:55.281Z,17.60
2018-05-26T23:27:24.757Z,17.40
2018-05-26T23:29:53.434Z,17.40
2018-05-26T23:32:22.133Z,17.40
2018-05-26T23:34:50.829Z,17.40
2018-05-26T23:37:19.473Z,17.30
2018-05-26T23:39:48.160Z,17.40
2018-05-26T23:42:16.795Z,17.40
2018-05-26T23:44:46.208Z,17.50
2018-05-26T23:47:14.903Z,17.50
2018-05-26T23:49:44.287Z,17.40
2018-05-26T23:52:13.704Z,17.40
2018-05-26T23:54:43.109Z,17.40
2018-05-26T23:57:11.763Z,17.40
2018-05-26T23:59:40.431Z,17.40
